Time;durP1;ratioP1;P1;durP2;ratioP2;P2;SDS_P1;SDS_P2;PMS_P1;PMS_P2;Temp;Humidity;BMP_temperature;BMP_pressure;BME280_temperature;BME280_humidity;BME280_pressure;Samples;Min_cycle;Max_cycle;Signal;HPM_P1;HPM_P2
2021/10/21 00:01:10;;;;;;;0.00;0.00;;;12.30;69.70;;;;;;5055276;28;20083;-77
2021/10/21 00:03:36;;;;;;;0.00;0.00;;;12.20;69.70;;;;;;5056304;28;20114;-77
2021/10/21 00:06:03;;;;;;;0.00;0.00;;;12.20;69.90;;;;;;5072619;28;20116;-77
2021/10/21 00:08:29;;;;;;;0.00;0.00;;;12.20;70.00;;;;;;5071371;28;20029;-77
2021/10/21 00:10:56;;;;;;;0.00;0.00;;;12.20;70.20;;;;;;5056376;28;20021;-77
2021/10/21 00:13:22;;;;;;;0.00;0.00;;;12.20;70.30;;;;;;5056226;28;20032;-77
2021/10/21 00:15:48;;;;;;;0.00;0.00;;;12.20;70.30;;;;;;5056168;28;20043;-77
2021/10/21 00:18:14;;;;;;;0.00;0.00;;;12.10;70.60;;;;;;5056166;28;20107;-77
2021/10/21 00:20:40;;;;;;;0.00;0.00;;;12.10;70.60;;;;;;5056476;28;20040;-77
2021/10/21 00:23:05;;;;;;;0.00;0.00;;;12.10;70.80;;;;;;5056199;28;20045;-77
2021/10/21 00:25:31;;;;;;;0.00;0.00;;;12.10;70.90;;;;;;5055968;28;20029;-77
2021/10/21 00:27:57;;;;;;;0.00;0.00;;;12.00;71.00;;;;;;5054333;28;20078;-77
2021/10/21 00:30:24;;;;;;;0.00;0.00;;;12.00;71.10;;;;;;5055653;28;20021;-77
2021/10/21 00:32:51;;;;;;;0.00;0.00;;;12.00;71.30;;;;;;5055811;28;20096;-77
2021/10/21 00:35:16;;;;;;;0.00;0.00;;;12.00;71.40;;;;;;5055711;28;20029;-77
2021/10/21 00:37:42;;;;;;;0.00;0.00;;;11.90;71.60;;;;;;5056092;28;20028;-77
2021/10/21 00:40:09;;;;;;;0.00;0.00;;;11.90;71.70;;;;;;5056032;28;20566;-77
2021/10/21 00:42:35;;;;;;;0.00;0.00;;;11.90;71.80;;;;;;5055844;28;20040;-77
2021/10/21 00:45:01;;;;;;;0.00;0.00;;;11.90;72.00;;;;;;5055290;28;20040;-77
2021/10/21 00:47:27;;;;;;;0.00;0.00;;;11.90;72.10;;;;;;5055589;28;20025;-77
2021/10/21 00:49:53;;;;;;;0.00;0.00;;;11.90;72.30;;;;;;5054024;28;20031;-77
2021/10/21 00:52:19;;;;;;;0.00;0.00;;;11.90;72.50;;;;;;5070919;28;20025;-77
2021/10/21 00:54:46;;;;;;;0.00;0.00;;;11.80;72.70;;;;;;5055714;28;20107;-77
2021/10/21 00:57:13;;;;;;;0.00;0.00;;;11.80;72.90;;;;;;5070585;28;20087;-76
2021/10/21 00:59:41;;;;;;;0.00;0.00;;;11.80;73.10;;;;;;5055851;28;20024;-77
2021/10/21 01:02:07;;;;;;;0.00;0.00;;;11.80;73.20;;;;;;5055336;28;20021;-77
2021/10/21 01:04:33;;;;;;;0.00;0.00;;;11.70;73.30;;;;;;5055257;28;20037;-77
2021/10/21 01:06:59;;;;;;;0.00;0.00;;;11.70;73.40;;;;;;5055112;28;20430;-77
2021/10/21 01:09:24;;;;;;;0.00;0.00;;;11.70;73.60;;;;;;5054152;28;20381;-77
2021/10/21 01:11:51;;;;;;;0.00;0.00;;;11.70;73.80;;;;;;5055097;28;20024;-77
2021/10/21 01:14:18;;;;;;;0.00;0.00;;;11.60;73.90;;;;;;5070534;28;20415;-77
2021/10/21 01:16:44;;;;;;;0.00;0.00;;;11.60;74.00;;;;;;5055065;28;20104;-77
2021/10/21 01:19:16;;;;;;;0.00;0.00;;;11.60;74.20;;;;;;5055766;28;20163;-76
2021/10/21 01:21:43;;;;;;;0.00;0.00;;;11.60;74.50;;;;;;5055538;28;20366;-77
2021/10/21 01:24:09;;;;;;;0.00;0.00;;;11.60;74.50;;;;;;5054517;28;20434;-77
2021/10/21 01:26:35;;;;;;;0.00;0.00;;;11.50;74.50;;;;;;5054944;28;20159;-77
2021/10/21 01:29:00;;;;;;;0.00;0.00;;;11.50;74.70;;;;;;5053489;28;20025;-77
2021/10/21 01:31:26;;;;;;;0.00;0.00;;;11.50;75.00;;;;;;5054730;28;20037;-77
2021/10/21 01:33:52;;;;;;;0.00;0.00;;;11.50;75.10;;;;;;5053393;28;20035;-77
2021/10/21 01:36:18;;;;;;;0.00;0.00;;;11.50;75.40;;;;;;5054668;28;20481;-77
2021/10/21 01:38:44;;;;;;;0.00;0.00;;;11.40;75.40;;;;;;5054673;28;20071;-77
2021/10/21 01:41:10;;;;;;;0.00;0.00;;;11.40;75.80;;;;;;5053297;28;20064;-77
2021/10/21 01:43:45;;;;;;;0.00;0.00;;;11.40;75.90;;;;;;5054186;28;20090;-77
2021/10/21 01:46:11;;;;;;;0.00;0.00;;;11.40;76.10;;;;;;5054491;28;20031;-77
2021/10/21 01:48:37;;;;;;;0.00;0.00;;;11.40;76.30;;;;;;5054707;28;20442;-76
2021/10/21 01:51:04;;;;;;;0.00;0.00;;;11.30;76.40;;;;;;5054220;28;20029;-76
2021/10/21 01:53:29;;;;;;;0.00;0.00;;;11.30;76.60;;;;;;5053962;28;20025;-76
2021/10/21 01:55:55;;;;;;;0.00;0.00;;;11.30;76.80;;;;;;5054495;28;20025;-76
2021/10/21 01:58:21;;;;;;;0.00;0.00;;;11.30;76.90;;;;;;5054414;28;20032;-76
2021/10/21 02:00:47;;;;;;;0.00;0.00;;;11.30;77.00;;;;;;5054516;28;20025;-77
2021/10/21 02:03:13;;;;;;;0.00;0.00;;;11.20;77.10;;;;;;5054077;28;20033;-76
2021/10/21 02:05:38;;;;;;;0.00;0.00;;;11.30;77.40;;;;;;5069611;28;20025;-76
2021/10/21 02:08:04;;;;;;;0.00;0.00;;;11.30;77.50;;;;;;5054082;28;20067;-76
2021/10/21 02:10:30;;;;;;;0.00;0.00;;;11.20;77.70;;;;;;5053594;28;20397;-76
2021/10/21 02:12:56;;;;;;;0.00;0.00;;;11.20;77.80;;;;;;5052852;28;20036;-76
2021/10/21 02:15:22;;;;;;;0.00;0.00;;;11.20;77.80;;;;;;5054092;28;20028;-76
2021/10/21 02:17:48;;;;;;;0.00;0.00;;;11.20;77.90;;;;;;5054009;28;20025;-76
2021/10/21 02:20:15;;;;;;;0.00;0.00;;;11.20;78.10;;;;;;5052938;28;20025;-77
2021/10/21 02:22:41;;;;;;;0.00;0.00;;;11.20;78.20;;;;;;5054254;28;20091;-76
2021/10/21 02:25:09;;;;;;;0.00;0.00;;;11.20;78.40;;;;;;5054486;28;20041;-76
2021/10/21 02:27:34;;;;;;;0.00;0.00;;;11.20;78.40;;;;;;5052643;28;20114;-77
2021/10/21 02:30:00;;;;;;;0.00;0.00;;;11.20;78.60;;;;;;5053704;28;20358;-76
2021/10/21 02:32:26;;;;;;;0.00;0.00;;;11.20;78.70;;;;;;5053508;28;20033;-76
2021/10/21 02:34:52;;;;;;;0.00;0.00;;;11.10;78.80;;;;;;5053784;28;20025;-78
2021/10/21 02:37:18;;;;;;;0.00;0.00;;;11.10;78.90;;;;;;5053952;28;20021;-77
2021/10/21 02:39:43;;;;;;;0.00;0.00;;;11.10;79.00;;;;;;5053690;28;20368;-78
2021/10/21 02:42:09;;;;;;;0.00;0.00;;;11.10;79.10;;;;;;5053429;28;20028;-76
2021/10/21 02:44:35;;;;;;;0.00;0.00;;;11.10;79.30;;;;;;5053674;28;20069;-75
2021/10/21 02:47:01;;;;;;;0.00;0.00;;;11.10;79.50;;;;;;5054054;28;20334;-76
2021/10/21 02:49:26;;;;;;;0.00;0.00;;;11.10;79.60;;;;;;5053598;28;20028;-77
2021/10/21 02:51:52;;;;;;;0.00;0.00;;;11.10;79.70;;;;;;5053126;28;20457;-76
2021/10/21 02:54:18;;;;;;;0.00;0.00;;;11.10;79.60;;;;;;5053889;28;20033;-76
2021/10/21 02:56:44;;;;;;;0.00;0.00;;;11.10;79.80;;;;;;5053604;28;20021;-76
2021/10/21 02:59:09;;;;;;;0.00;0.00;;;11.10;80.00;;;;;;5053298;28;20061;-76
2021/10/21 03:01:35;;;;;;;0.00;0.00;;;11.10;80.00;;;;;;5053852;28;20036;-76
2021/10/21 03:04:01;;;;;;;0.00;0.00;;;11.10;80.10;;;;;;5053350;28;20040;-78
2021/10/21 03:06:27;;;;;;;0.00;0.00;;;11.00;80.20;;;;;;5053770;28;20401;-77
2021/10/21 03:08:53;;;;;;;0.00;0.00;;;11.00;80.20;;;;;;5053598;28;20036;-78
2021/10/21 03:11:18;;;;;;;0.00;0.00;;;11.00;80.30;;;;;;5053425;28;20414;-77
2021/10/21 03:13:44;;;;;;;0.00;0.00;;;11.00;80.50;;;;;;5053270;28;20108;-77
2021/10/21 03:16:10;;;;;;;0.00;0.00;;;11.00;80.70;;;;;;5051916;28;20078;-77
2021/10/21 03:18:35;;;;;;;0.00;0.00;;;11.00;80.70;;;;;;5052184;28;20112;-78
2021/10/21 03:21:01;;;;;;;0.00;0.00;;;11.00;80.90;;;;;;5053115;28;20480;-77
2021/10/21 03:23:27;;;;;;;0.00;0.00;;;11.00;80.90;;;;;;5053081;28;20045;-77
2021/10/21 03:25:54;;;;;;;0.00;0.00;;;11.00;81.10;;;;;;5068983;28;20099;-77
2021/10/21 03:28:21;;;;;;;0.00;0.00;;;11.00;81.20;;;;;;5052157;28;20090;-77
2021/10/21 03:30:46;;;;;;;0.00;0.00;;;11.00;81.30;;;;;;5068586;28;20029;-77
2021/10/21 03:33:12;;;;;;;0.00;0.00;;;11.00;81.50;;;;;;5052909;28;20108;-77
2021/10/21 03:35:39;;;;;;;0.00;0.00;;;11.00;81.30;;;;;;5069137;28;20025;-78
2021/10/21 03:38:05;;;;;;;0.00;0.00;;;11.00;81.40;;;;;;5051850;28;20083;-77
2021/10/21 03:40:31;;;;;;;0.00;0.00;;;11.00;81.50;;;;;;5053269;28;20393;-76
2021/10/21 03:42:57;;;;;;;0.00;0.00;;;11.00;81.60;;;;;;5054642;28;20033;-77
2021/10/21 03:45:23;;;;;;;0.00;0.00;;;11.00;81.80;;;;;;5072212;28;20035;-77
2021/10/21 03:47:49;;;;;;;0.00;0.00;;;10.90;81.70;;;;;;5056829;28;20029;-76
2021/10/21 03:50:15;;;;;;;0.00;0.00;;;10.90;81.90;;;;;;5056799;28;20025;-76
2021/10/21 03:52:41;;;;;;;0.00;0.00;;;10.90;82.00;;;;;;5055379;28;20056;-76
2021/10/21 03:55:07;;;;;;;0.00;0.00;;;10.90;82.10;;;;;;5056335;28;20021;-76
2021/10/21 03:57:33;;;;;;;0.00;0.00;;;10.90;82.10;;;;;;5056508;28;20494;-76
2021/10/21 03:59:58;;;;;;;0.00;0.00;;;10.90;82.20;;;;;;5056113;28;20025;-77
2021/10/21 04:02:24;;;;;;;0.00;0.00;;;10.80;82.30;;;;;;5056166;28;20484;-77
2021/10/21 04:04:50;;;;;;;0.00;0.00;;;10.80;82.40;;;;;;5056475;28;20033;-76
2021/10/21 04:07:16;;;;;;;0.00;0.00;;;10.80;82.40;;;;;;5056281;28;20021;-78
2021/10/21 04:09:41;;;;;;;0.00;0.00;;;10.80;82.50;;;;;;5056043;28;20473;-77
2021/10/21 04:12:07;;;;;;;0.00;0.00;;;10.80;82.60;;;;;;5056312;28;20029;-77
2021/10/21 04:14:33;;;;;;;0.00;0.00;;;10.80;82.80;;;;;;5056189;28;20037;-77
2021/10/21 04:16:59;;;;;;;0.00;0.00;;;10.80;82.80;;;;;;5072519;28;20021;-77
2021/10/21 04:19:24;;;;;;;0.00;0.00;;;10.70;82.70;;;;;;5056160;28;20094;-77
2021/10/21 04:21:50;;;;;;;0.00;0.00;;;10.80;83.00;;;;;;5055638;28;20021;-75
2021/10/21 04:24:16;;;;;;;0.00;0.00;;;10.70;83.00;;;;;;5055917;28;20033;-77
2021/10/21 04:26:42;;;;;;;0.00;0.00;;;10.70;83.10;;;;;;5056042;28;20025;-77
2021/10/21 04:29:08;;;;;;;0.00;0.00;;;10.70;83.00;;;;;;5056153;28;20096;-77
2021/10/21 04:31:33;;;;;;;0.00;0.00;;;10.70;83.30;;;;;;5055581;28;20033;-77
2021/10/21 04:33:59;;;;;;;0.00;0.00;;;10.70;83.20;;;;;;5071793;28;20040;-77
2021/10/21 04:36:25;;;;;;;0.00;0.00;;;10.70;83.20;;;;;;5055803;28;20029;-77
2021/10/21 04:38:51;;;;;;;0.00;0.00;;;10.70;83.20;;;;;;5054430;28;20057;-77
2021/10/21 04:41:17;;;;;;;0.00;0.00;;;10.70;83.30;;;;;;5056293;28;20033;-77
2021/10/21 04:43:43;;;;;;;0.00;0.00;;;10.70;83.30;;;;;;5055576;28;20029;-78
2021/10/21 04:46:08;;;;;;;0.00;0.00;;;10.70;83.30;;;;;;5055851;28;20036;-77
2021/10/21 04:48:34;;;;;;;0.00;0.00;;;10.80;83.40;;;;;;5056383;28;20473;-77
2021/10/21 04:51:00;;;;;;;0.00;0.00;;;10.80;83.30;;;;;;5054490;28;20458;-78
2021/10/21 04:53:26;;;;;;;0.00;0.00;;;10.80;83.30;;;;;;5054726;28;20033;-77
2021/10/21 04:55:51;;;;;;;0.00;0.00;;;10.80;83.40;;;;;;5055818;28;20029;-77
2021/10/21 04:58:17;;;;;;;0.00;0.00;;;10.80;83.50;;;;;;5055304;28;20025;-77
2021/10/21 05:00:43;;;;;;;0.00;0.00;;;10.80;83.40;;;;;;5055194;28;20051;-77
2021/10/21 05:03:12;;;;;;;0.00;0.00;;;10.80;83.30;;;;;;5055647;28;20120;-77
2021/10/21 05:05:42;;;;;;;0.00;0.00;;;10.80;83.30;;;;;;5055826;28;20075;-80
2021/10/21 05:08:07;;;;;;;0.00;0.00;;;10.90;83.20;;;;;;5054898;28;20361;-77
2021/10/21 05:10:33;;;;;;;0.00;0.00;;;10.90;83.20;;;;;;5055169;28;20028;-77
2021/10/21 05:12:59;;;;;;;0.00;0.00;;;10.90;83.20;;;;;;5055072;28;20024;-78
2021/10/21 05:15:25;;;;;;;0.00;0.00;;;10.90;83.10;;;;;;5054849;28;20512;-77
2021/10/21 05:17:52;;;;;;;0.00;0.00;;;11.00;83.00;;;;;;5054852;28;20033;-77
2021/10/21 05:20:18;;;;;;;0.00;0.00;;;11.00;82.90;;;;;;5054857;28;20033;-78
2021/10/21 05:22:44;;;;;;;0.00;0.00;;;11.00;82.80;;;;;;5053489;28;20124;-78
2021/10/21 05:25:10;;;;;;;0.00;0.00;;;11.10;82.80;;;;;;5055115;28;20170;-78
2021/10/21 05:27:36;;;;;;;0.00;0.00;;;11.10;82.80;;;;;;5053133;28;20402;-78
2021/10/21 05:30:05;;;;;;;0.00;0.00;;;11.10;82.70;;;;;;5054540;28;20029;-78
2021/10/21 05:32:47;;;;;;;0.00;0.00;;;11.10;82.60;;;;;;5055530;28;20025;-78
2021/10/21 05:35:41;;;;;;;0.00;0.00;;;11.10;82.50;;;;;;5053101;28;20082;-77
2021/10/21 05:38:07;;;;;;;0.00;0.00;;;11.20;82.40;;;;;;5054280;28;20412;-79
2021/10/21 05:40:33;;;;;;;0.00;0.00;;;11.30;82.30;;;;;;5053500;28;20025;-77
2021/10/21 05:42:59;;;;;;;0.00;0.00;;;11.30;82.80;;;;;;5054543;28;20027;-79
2021/10/21 05:45:25;;;;;;;0.00;0.00;;;11.30;82.10;;;;;;5054537;28;20033;-78
2021/10/21 05:47:50;;;;;;;0.00;0.00;;;11.30;81.90;;;;;;5054404;28;20032;-78
2021/10/21 05:50:16;;;;;;;0.00;0.00;;;11.40;81.80;;;;;;5054446;28;20032;-77
2021/10/21 05:52:42;;;;;;;0.00;0.00;;;11.50;81.60;;;;;;5054310;28;20057;-78
2021/10/21 05:55:08;;;;;;;0.00;0.00;;;11.50;81.50;;;;;;5054397;28;20047;-77
2021/10/21 05:57:34;;;;;;;0.00;0.00;;;11.50;81.40;;;;;;5054040;28;20033;-78
2021/10/21 05:59:59;;;;;;;0.20;0.00;;;11.60;81.20;;;;;;5054202;28;20454;-78
2021/10/21 06:02:25;;;;;;;0.00;0.00;;;11.60;80.90;;;;;;5054154;28;20107;-77
2021/10/21 06:04:51;;;;;;;0.00;0.00;;;11.70;80.90;;;;;;5054041;28;20041;-77
2021/10/21 06:07:17;;;;;;;0.00;0.00;;;11.70;80.70;;;;;;5052645;28;20024;-77
2021/10/21 06:09:44;;;;;;;0.00;0.00;;;11.80;80.40;;;;;;5053782;28;20385;-80
2021/10/21 06:12:10;;;;;;;0.00;0.00;;;11.90;80.10;;;;;;5054546;28;20162;-77
2021/10/21 06:14:36;;;;;;;0.00;0.00;;;11.90;79.90;;;;;;5053596;28;20037;-78
2021/10/21 06:17:02;;;;;;;0.00;0.00;;;12.00;79.70;;;;;;5053997;28;20036;-78
2021/10/21 06:19:28;;;;;;;0.00;0.00;;;12.00;79.50;;;;;;5053648;28;20029;-78
2021/10/21 06:22:08;;;;;;;0.08;0.08;;;12.10;79.20;;;;;;5053877;28;20358;-79
2021/10/21 06:24:34;;;;;;;0.00;0.00;;;12.10;78.90;;;;;;5069695;28;20541;-78
2021/10/21 06:27:02;;;;;;;0.00;0.00;;;12.20;78.60;;;;;;5053984;28;20041;-77
2021/10/21 06:29:28;;;;;;;0.00;0.00;;;12.30;78.50;;;;;;5053581;28;20107;-77
2021/10/21 06:31:54;;;;;;;0.00;0.00;;;12.40;78.30;;;;;;5052494;28;20028;-76
2021/10/21 06:34:20;;;;;;;0.00;0.00;;;12.40;78.00;;;;;;5053795;28;20108;-78
2021/10/21 06:36:46;;;;;;;0.00;0.00;;;12.50;77.70;;;;;;5054030;28;20071;-76
2021/10/21 06:39:12;;;;;;;0.00;0.00;;;12.70;77.50;;;;;;5053610;28;20029;-79
2021/10/21 06:41:38;;;;;;;0.00;0.00;;;12.80;76.90;;;;;;5052606;28;20127;-79
2021/10/21 06:44:06;;;;;;;0.00;0.00;;;12.90;76.50;;;;;;5054204;28;20480;-78
2021/10/21 06:46:31;;;;;;;0.00;0.00;;;13.00;76.00;;;;;;5053923;28;20105;-79
2021/10/21 06:49:01;;;;;;;0.00;0.00;;;13.00;75.60;;;;;;5053457;28;20105;-80
2021/10/21 06:51:28;;;;;;;0.00;0.00;;;13.10;75.00;;;;;;5069660;28;20036;-79
2021/10/21 06:53:55;;;;;;;0.00;0.00;;;13.10;74.80;;;;;;5054058;28;20030;-77
2021/10/21 06:56:20;;;;;;;0.00;0.00;;;13.20;74.80;;;;;;5054018;28;20111;-78
2021/10/21 06:58:46;;;;;;;0.00;0.00;;;13.20;74.40;;;;;;5053761;28;20484;-78
2021/10/21 07:01:12;;;;;;;0.00;0.00;;;13.30;74.20;;;;;;5054032;28;20021;-76
2021/10/21 07:03:38;;;;;;;0.00;0.00;;;13.30;73.90;;;;;;5052140;28;20385;-78
2021/10/21 07:06:04;;;;;;;0.00;0.00;;;13.40;73.70;;;;;;5052923;28;20198;-78
2021/10/21 07:08:30;;;;;;;0.00;0.00;;;13.50;73.70;;;;;;5054064;28;20472;-78
2021/10/21 07:11:01;;;;;;;0.00;0.00;;;13.60;73.10;;;;;;5055337;28;20116;-78
2021/10/21 07:13:27;;;;;;;0.00;0.00;;;13.80;72.40;;;;;;5054080;28;20033;-80
2021/10/21 07:15:53;;;;;;;0.00;0.00;;;13.90;72.10;;;;;;5069049;28;20033;-80
2021/10/21 07:18:19;;;;;;;0.00;0.00;;;14.00;71.80;;;;;;5057874;28;20473;-78
2021/10/21 07:20:45;;;;;;;0.00;0.00;;;14.20;71.10;;;;;;5057734;28;20021;-78
2021/10/21 07:23:11;;;;;;;0.00;0.00;;;14.30;70.60;;;;;;5057238;28;20433;-77
2021/10/21 07:25:37;;;;;;;0.00;0.00;;;14.50;70.20;;;;;;5057580;28;20131;-78
2021/10/21 07:28:04;;;;;;;0.00;0.00;;;14.60;70.00;;;;;;5057185;28;20055;-78
2021/10/21 07:30:31;;;;;;;0.00;0.00;;;14.80;69.00;;;;;;5057205;28;20036;-78
2021/10/21 07:33:00;;;;;;;0.00;0.00;;;15.00;68.30;;;;;;5057727;28;20155;-80
2021/10/21 07:35:31;;;;;;;0.00;0.00;;;15.20;68.00;;;;;;5057876;28;20055;-78
2021/10/21 07:38:01;;;;;;;0.00;0.00;;;15.30;67.50;;;;;;5057358;28;20111;-78
2021/10/21 07:40:27;;;;;;;0.00;0.00;;;15.50;66.40;;;;;;5056776;28;20049;-77
2021/10/21 07:42:52;;;;;;;0.00;0.00;;;15.60;65.90;;;;;;5057075;28;20032;-78
2021/10/21 07:45:19;;;;;;;0.00;0.00;;;15.70;65.90;;;;;;5056401;28;20037;-79
2021/10/21 07:47:44;;;;;;;0.00;0.00;;;16.00;66.20;;;;;;5057264;28;20114;-81
2021/10/21 07:50:11;;;;;;;0.00;0.00;;;16.30;65.10;;;;;;5055522;28;20107;-78
2021/10/21 07:52:38;;;;;;;0.00;0.00;;;16.70;64.00;;;;;;5056223;28;20021;-78
2021/10/21 07:55:08;;;;;;;0.00;0.00;;;17.10;62.90;;;;;;5056549;28;20021;-78
2021/10/21 07:57:35;;;;;;;0.00;0.00;;;17.40;61.70;;;;;;5056801;28;20432;-79
2021/10/21 08:00:04;;;;;;;0.00;0.00;;;17.60;61.30;;;;;;5056330;28;20142;-78
2021/10/21 08:02:29;;;;;;;0.00;0.00;;;18.00;59.90;;;;;;5072107;28;20048;-78
2021/10/21 08:04:55;;;;;;;0.00;0.00;;;18.30;59.30;;;;;;5055896;28;20430;-79
2021/10/21 08:07:21;;;;;;;0.00;0.00;;;18.70;58.50;;;;;;5056424;28;20053;-81
2021/10/21 08:09:50;;;;;;;0.00;0.00;;;19.10;57.10;;;;;;5055136;28;20029;-79
2021/10/21 08:12:17;;;;;;;0.00;0.00;;;19.20;55.60;;;;;;5055592;28;20052;-79
2021/10/21 08:14:43;;;;;;;0.00;0.00;;;19.20;55.10;;;;;;5056745;28;20103;-78
2021/10/21 08:17:09;;;;;;;0.00;0.00;;;19.20;55.20;;;;;;5057047;28;20025;-79
2021/10/21 08:19:34;;;;;;;0.00;0.00;;;19.40;54.60;;;;;;5056490;28;20036;-78
2021/10/21 08:22:01;;;;;;;0.00;0.00;;;19.30;54.40;;;;;;5056015;28;20461;-79
2021/10/21 08:24:27;;;;;;;0.00;0.00;;;19.40;54.40;;;;;;5056056;28;20385;-79
2021/10/21 08:26:54;;;;;;;0.00;0.00;;;19.40;54.20;;;;;;5055993;28;20029;-78
2021/10/21 08:29:22;;;;;;;0.00;0.00;;;19.50;53.90;;;;;;5055067;28;20029;-75
2021/10/21 08:31:49;;;;;;;0.00;0.00;;;19.40;53.50;;;;;;5071074;28;20048;-77
2021/10/21 08:34:15;;;;;;;0.00;0.00;;;19.30;53.30;;;;;;5055846;28;20493;-74
2021/10/21 08:36:40;;;;;;;0.00;0.00;;;19.30;53.50;;;;;;5056055;28;20032;-75
2021/10/21 08:39:07;;;;;;;0.00;0.00;;;19.20;53.50;;;;;;5055926;28;20108;-75
2021/10/21 08:41:33;;;;;;;0.00;0.00;;;19.10;53.60;;;;;;5054322;28;20149;-75
2021/10/21 08:43:59;;;;;;;0.00;0.00;;;19.10;53.80;;;;;;5055983;28;20120;-75
2021/10/21 08:46:26;;;;;;;0.00;0.00;;;19.20;53.80;;;;;;5055807;28;20170;-74
2021/10/21 08:49:03;;;;;;;0.00;0.00;;;19.30;53.50;;;;;;5070896;28;20484;-75
2021/10/21 08:51:31;;;;;;;0.00;0.00;;;19.50;52.90;;;;;;5054785;28;20044;-75
2021/10/21 08:53:57;;;;;;;0.00;0.00;;;19.50;52.70;;;;;;5070708;28;20110;-75
2021/10/21 08:56:24;;;;;;;0.00;0.00;;;19.70;52.60;;;;;;5070597;28;20111;-75
2021/10/21 08:58:53;;;;;;;0.00;0.00;;;19.80;52.20;;;;;;5055297;28;20027;-74
2021/10/21 09:01:21;;;;;;;0.00;0.00;;;20.00;51.60;;;;;;5056049;28;20140;-76
2021/10/21 09:08:53;;;;;;;0.00;0.00;;;20.40;50.30;;;;;;5054820;28;20036;-74
2021/10/21 09:11:21;;;;;;;0.00;0.00;;;20.50;50.20;;;;;;5055141;28;20056;-75
2021/10/21 09:13:47;;;;;;;0.00;0.00;;;20.40;49.90;;;;;;5054471;28;20029;-74
2021/10/21 09:16:20;;;;;;;0.00;0.00;;;20.30;49.90;;;;;;5053624;28;20029;-76
2021/10/21 09:18:47;;;;;;;0.00;0.00;;;20.20;50.00;;;;;;5055201;28;20083;-74
2021/10/21 09:21:30;;;;;;;0.00;0.00;;;20.10;50.10;;;;;;5054857;28;20086;-74
2021/10/21 09:23:58;;;;;;;0.00;0.00;;;19.90;50.00;;;;;;5055775;28;20037;-76
2021/10/21 09:26:24;;;;;;;0.00;0.00;;;19.90;50.50;;;;;;5054811;28;20029;-76
2021/10/21 09:28:49;;;;;;;0.00;0.00;;;19.90;50.30;;;;;;5054568;28;20477;-76
2021/10/21 09:31:17;;;;;;;0.00;0.00;;;20.00;50.30;;;;;;5054451;28;20475;-77
2021/10/21 09:33:56;;;;;;;0.00;0.00;;;20.10;50.10;;;;;;5054550;28;20472;-76
2021/10/21 09:36:23;;;;;;;0.00;0.00;;;20.30;49.60;;;;;;5054418;28;20108;-76
2021/10/21 09:38:54;;;;;;;0.00;0.00;;;20.60;49.40;;;;;;5053596;28;20029;-75
2021/10/21 09:41:34;;;;;;;0.00;0.00;;;21.10;48.50;;;;;;5053818;28;20032;-75
2021/10/21 09:44:20;;;;;;;0.00;0.00;;;21.60;47.40;;;;;;5054515;28;20365;-76
2021/10/21 09:46:45;;;;;;;0.00;0.00;;;22.10;46.60;;;;;;5069654;28;20028;-74
2021/10/21 09:49:32;;;;;;;0.00;0.00;;;22.70;45.60;;;;;;5054111;28;20469;-75
2021/10/21 09:52:01;;;;;;;0.00;0.00;;;23.10;44.60;;;;;;5054009;28;20029;-73
2021/10/21 09:54:28;;;;;;;0.00;0.00;;;23.30;44.30;;;;;;5054264;28;20025;-74
2021/10/21 09:57:04;;;;;;;0.00;0.00;;;23.30;44.10;;;;;;5069492;28;20059;-75
2021/10/21 09:59:35;;;;;;;0.00;0.00;;;23.00;44.00;;;;;;5053859;28;20029;-74
2021/10/21 10:02:15;;;;;;;0.00;0.00;;;22.70;44.30;;;;;;5054114;28;20032;-75
2021/10/21 10:04:48;;;;;;;0.00;0.00;;;22.70;44.70;;;;;;5069372;28;20032;-75
2021/10/21 10:07:14;;;;;;;0.00;0.00;;;22.80;44.80;;;;;;5054091;28;20029;-75
2021/10/21 10:09:42;;;;;;;0.10;0.10;;;22.80;44.60;;;;;;5053944;28;20459;-75
2021/10/21 10:12:08;;;;;;;0.00;0.00;;;22.60;44.70;;;;;;5054016;28;20369;-74
2021/10/21 10:14:43;;;;;;;0.00;0.00;;;22.30;45.00;;;;;;5054146;28;20568;-75
2021/10/21 10:17:10;;;;;;;0.00;0.00;;;22.00;45.40;;;;;;5049987;28;20120;-75
2021/10/21 10:19:42;;;;;;;0.00;0.00;;;21.90;45.70;;;;;;5054156;28;20091;-76
2021/10/21 10:22:11;;;;;;;0.00;0.00;;;22.00;45.90;;;;;;5053321;28;20461;-78
2021/10/21 10:24:38;;;;;;;0.00;0.00;;;22.10;45.90;;;;;;5053897;28;20373;-75
2021/10/21 10:27:28;;;;;;;0.00;0.00;;;22.20;45.70;;;;;;5069044;28;20129;-75
2021/10/21 10:29:59;;;;;;;0.00;0.00;;;22.70;44.90;;;;;;5052477;28;20024;-76
2021/10/21 10:32:38;;;;;;;0.00;0.00;;;23.30;44.60;;;;;;5053456;28;20025;-75
2021/10/21 10:35:09;;;;;;;0.10;0.00;;;23.70;43.70;;;;;;5069008;28;20075;-75
2021/10/21 10:37:39;;;;;;;0.10;0.10;;;23.90;43.10;;;;;;5053196;28;20111;-75
2021/10/21 10:40:06;;;;;;;0.00;0.00;;;23.80;42.80;;;;;;5053519;28;20025;-74
2021/10/21 10:42:32;;;;;;;0.00;0.00;;;23.80;42.80;;;;;;5052919;28;20040;-76
2021/10/21 10:44:58;;;;;;;0.10;0.00;;;23.60;42.80;;;;;;5053164;28;20029;-74
2021/10/21 10:47:46;;;;;;;0.00;0.00;;;23.30;43.30;;;;;;5053508;28;20032;-75
2021/10/21 10:50:21;;;;;;;0.00;0.00;;;23.20;43.60;;;;;;5068625;28;20063;-75
2021/10/21 10:52:53;;;;;;;0.00;0.00;;;23.30;43.60;;;;;;5056520;28;20151;-75
2021/10/21 10:55:42;;;;;;;0.00;0.00;;;23.20;43.40;;;;;;5073099;28;20086;-76
2021/10/21 10:58:15;;;;;;;0.00;0.00;;;22.80;43.50;;;;;;5057331;28;20115;-75
2021/10/21 11:00:58;;;;;;;0.00;0.00;;;22.50;43.90;;;;;;5056503;28;20351;-75
2021/10/21 11:03:31;;;;;;;0.10;0.00;;;22.20;44.60;;;;;;5058199;28;20029;-75
2021/10/21 11:06:04;;;;;;;0.00;0.00;;;21.90;45.30;;;;;;5057346;28;20071;-76
2021/10/21 11:08:48;;;;;;;0.00;0.00;;;21.70;45.80;;;;;;5057360;28;20125;-74
2021/10/21 11:11:38;;;;;;;0.00;0.00;;;21.80;46.10;;;;;;5057305;28;20032;-75
2021/10/21 11:14:19;;;;;;;0.00;0.00;;;21.80;46.10;;;;;;5057438;28;20037;-74
2021/10/21 11:17:03;;;;;;;0.00;0.00;;;22.10;45.90;;;;;;5057351;28;20396;-74
2021/10/21 11:19:47;;;;;;;0.00;0.00;;;22.30;45.30;;;;;;5057453;28;20166;-74
2021/10/21 11:22:19;;;;;;;0.00;0.00;;;22.30;45.20;;;;;;5055702;28;20041;-76
2021/10/21 11:24:48;;;;;;;0.20;0.00;;;22.10;45.50;;;;;;5055890;28;20037;-76
2021/10/21 11:27:16;;;;;;;0.00;0.00;;;22.20;45.80;;;;;;5055625;28;20029;-75
2021/10/21 11:29:44;;;;;;;0.52;0.00;;;22.20;45.70;;;;;;5057017;28;20029;-75
2021/10/21 11:32:10;;;;;;;0.00;0.00;;;22.20;45.80;;;;;;5072157;28;20031;-74
2021/10/21 11:34:36;;;;;;;0.00;0.00;;;22.20;45.90;;;;;;5072378;28;20079;-76
2021/10/21 11:37:03;;;;;;;0.00;0.00;;;22.30;45.90;;;;;;5057160;28;20028;-75
2021/10/21 11:39:30;;;;;;;0.00;0.00;;;22.20;46.00;;;;;;5056752;28;20033;-74
2021/10/21 11:41:56;;;;;;;0.00;0.00;;;22.00;46.40;;;;;;5056422;28;20040;-74
2021/10/21 11:44:22;;;;;;;0.00;0.00;;;21.90;46.70;;;;;;5055646;28;20516;-74
2021/10/21 11:47:02;;;;;;;0.10;0.00;;;21.90;46.80;;;;;;5056771;28;20107;-76
2021/10/21 11:49:32;;;;;;;0.00;0.00;;;22.00;46.80;;;;;;5072402;28;20100;-74
2021/10/21 11:52:17;;;;;;;0.00;0.00;;;22.10;46.70;;;;;;5056620;28;20025;-75
2021/10/21 11:54:46;;;;;;;0.00;0.00;;;22.20;46.50;;;;;;5056683;28;20385;-74
2021/10/21 11:57:12;;;;;;;0.00;0.00;;;22.40;46.50;;;;;;5056846;28;20048;-74
2021/10/21 11:59:40;;;;;;;0.00;0.00;;;22.60;46.20;;;;;;5057166;28;20487;-76
2021/10/21 12:02:19;;;;;;;0.00;0.00;;;22.70;45.90;;;;;;5056797;28;20032;-75
2021/10/21 12:04:59;;;;;;;0.00;0.00;;;22.90;45.90;;;;;;5055666;28;20110;-75
2021/10/21 12:07:30;;;;;;;0.00;0.00;;;23.00;45.50;;;;;;5057080;28;20411;-76
2021/10/21 12:09:56;;;;;;;0.15;0.10;;;22.90;45.60;;;;;;5072509;28;20033;-76
2021/10/21 12:12:45;;;;;;;0.00;0.00;;;22.80;45.70;;;;;;5056730;28;20051;-76
2021/10/21 12:15:12;;;;;;;0.00;0.00;;;22.50;45.60;;;;;;5057145;28;20034;-74
2021/10/21 12:17:38;;;;;;;0.00;0.00;;;22.30;45.90;;;;;;5056547;28;20033;-74
2021/10/21 12:20:04;;;;;;;0.00;0.00;;;22.00;46.10;;;;;;5056536;28;20037;-79
2021/10/21 12:22:32;;;;;;;0.00;0.00;;;21.90;46.30;;;;;;5056133;28;20060;-76
2021/10/21 12:24:58;;;;;;;0.00;0.00;;;21.70;46.60;;;;;;5056480;28;20366;-77
2021/10/21 12:27:25;;;;;;;0.00;0.00;;;21.50;46.70;;;;;;5056136;28;20036;-75
2021/10/21 12:30:04;;;;;;;0.00;0.00;;;21.40;46.80;;;;;;5055802;28;20079;-75
2021/10/21 12:32:30;;;;;;;0.00;0.00;;;21.40;46.80;;;;;;5055144;28;20112;-74
2021/10/21 12:35:08;;;;;;;0.00;0.00;;;21.80;46.60;;;;;;5055610;28;20427;-76
2021/10/21 12:37:39;;;;;;;0.00;0.00;;;22.40;45.50;;;;;;5056072;28;20100;-75
2021/10/21 12:40:12;;;;;;;0.00;0.00;;;22.90;44.60;;;;;;5055660;28;20025;-76
2021/10/21 12:42:38;;;;;;;0.00;0.00;;;23.30;44.10;;;;;;5055673;28;20147;-75
2021/10/21 12:45:04;;;;;;;0.00;0.00;;;23.30;43.80;;;;;;5055292;28;20033;-76
2021/10/21 12:47:32;;;;;;;0.00;0.00;;;23.50;43.90;;;;;;5055527;28;20428;-74
2021/10/21 12:50:04;;;;;;;0.00;0.00;;;23.80;43.50;;;;;;5056043;28;20108;-74
2021/10/21 12:52:32;;;;;;;0.00;0.00;;;24.20;43.10;;;;;;5053659;28;20021;-73
2021/10/21 12:55:14;;;;;;;0.00;0.00;;;24.70;42.40;;;;;;5054195;28;20033;-75
2021/10/21 12:57:47;;;;;;;0.00;0.00;;;24.90;41.60;;;;;;5055774;28;20017;-75